Statewide Weather Sensors

Route Weather Station Name Milepost Date / Time Surface Status Surface Temp Precip Intensity Wind Avg Wind Gust Dir Dewpoint Humidity Air Temp Visibility
I 25 Wyo Hill 3.52 Jul 12, 2020 12:56 pm     None None 7 mph 18 mph NE 30.2°F 12% 89.6°F > 1/2 mi
I 25 Whitaker 30.2 Jul 12, 2020 12:56 pm Dry 123.4°F None None 14 mph 20 mph NW 42.8°F 20% 87.8°F > 1/2 mi
I 25 Bear Creek 46.77 Jul 12, 2020 12:56 pm Dry 128.7°F None None 8 mph 16 mph NE 23.0°F 9% 87.8°F > 1/2 mi
I 25 Bordeaux 70.8 Jun 29, 2020 10:04 am                      
I 25 Coleman 98.7 Jul 12, 2020 12:56 pm Dry 123.6°F None None 8 mph 20 mph NE 30.2°F 11% 89.6°F > 1/2 mi
I 25 Platte/Converse County Line 119.9 Apr 28, 2020 01:32 pm                      
I 25 Deer Creek 164.2 Jul 12, 2020 12:56 pm Dry 127.0°F None None 3 mph 9 mph E       > 1/2 mi
I 25 Hat Six 181.67 Jul 12, 2020 12:56 pm Dry 112.8°F None None 6 mph 14 mph W 23.0°F 8% 91.4°F > 1/2 mi
I 25 F Street Hill 189.51 Jul 12, 2020 12:56 pm Dry 117.3°F None None 9 mph 19 mph SW 24.8°F 9% 91.4°F > 1/2 mi
I 25 Twenty Mile Hill 207.2 Jul 12, 2020 12:56 pm     None None 13 mph 21 mph S       > 1/2 mi
I 25 Smokey Gap 228.58 Jul 12, 2020 12:56 pm Dry 115.2°F None None 15 mph 31 mph S 26.6°F 8% 93.2°F > 1/2 mi
I 25 Tisdale 238.87 Jul 12, 2020 12:57 pm Dry 113.0°F None None 20 mph 37 mph SW 21.2°F 7% 93.2°F > 1/2 mi
I 25 I-25 Divide 267.3 Jul 12, 2020 12:56 pm N/A   None None 21 mph 29 mph SW 28.4°F 10% 91.4°F > 1/2 mi
I 80 Evanston POE .06 Jul 12, 2020 12:56 pm Dry 95.4°F None   1 mph 19 mph SW 32.0°F 15% 86.0°F > 1/2 mi
I 80 Evanston 4.2 Jul 12, 2020 12:56 pm Dry 115.5°F None None 12 mph 19 mph SW 30.2°F 14% 84.2°F > 1/2 mi
I 80 Bear River Drive 6.94 Jul 12, 2020 12:56 pm Dry 97.5°F None   2 mph 20 mph W 32.0°F 14% 86.0°F > 1/2 mi
I 80 Painter 10.16 Jul 12, 2020 12:56 pm Dry 111.6°F None None 16 mph 25 mph S 30.2°F 13% 86.0°F > 1/2 mi
I 80 First Divide 13.86 Jul 12, 2020 12:56 pm N/A   None   14 mph 26 mph W 26.6°F 12% 82.4°F  
I 80 US 189 Interchange 17.66 Jul 12, 2020 12:56 pm Dry 111.7°F None   13 mph 24 mph W 26.6°F 12% 84.2°F  
I 80 Coal Road 20.95 Jul 12, 2020 12:56 pm Dry 121.5°F None None 12 mph 23 mph S 30.2°F 14% 82.4°F > 1/2 mi
I 80 Leroy 23.35 Jul 12, 2020 12:56 pm Dry 118.6°F None None 12 mph 23 mph SW 28.4°F 12% 87.8°F > 1/2 mi
I 80 French 27.6 Jul 12, 2020 12:56 pm Dry 114.4°F None None 16 mph 22 mph W 28.4°F 13% 84.2°F > 1/2 mi
I 80 Church Butte 52.65 Jul 12, 2020 12:56 pm N/A   None None 11 mph 22 mph W 26.6°F 11% 87.8°F > 1/2 mi
I 80 Peru Hill 82.31 Jul 12, 2020 12:56 pm N/A   None   7 mph 13 mph NW 28.4°F 11% 89.6°F  
I 80 Green River Tunnel 90.5 Jul 12, 2020 12:56 pm Dry 119.1°F None None 9 mph 14 mph SW 44.6°F 18% 91.4°F > 1/2 mi
I 80 Rock Springs West 97.9 Jul 12, 2020 12:56 pm Dry 126.5°F None None 12 mph 19 mph SW 28.4°F 11% 89.6°F > 1/2 mi
I 80 Baxter Road 111.5 Jul 12, 2020 12:56 pm     None None 1 mph 21 mph   26.6°F 10% 87.8°F > 1/2 mi
I 80 Mile Marker 124.5 124.5 Jul 12, 2020 12:56 pm N/A   None   14 mph 25 mph W 26.6°F 10% 89.6°F  
I 80 Point of Rocks 129.8 Jul 12, 2020 12:56 pm N/A   None None 12 mph 21 mph N 28.4°F 11% 89.6°F > 1/2 mi
I 80 Bitter Creek 141.83 Jul 12, 2020 12:56 pm Dry 115.9°F None   20 mph 25 mph W 30.2°F 13% 86.0°F  
I 80 Tipton 156.72 Jul 12, 2020 12:56 pm Dry 113.0°F None   11 mph 19 mph SW 26.6°F 11% 86.0°F  
I 80 Continental Divide 184.3 Jul 12, 2020 12:56 pm N/A   None None 18 mph 27 mph SW 41.0°F 21% 86.0°F > 1/2 mi
I 80 Sinclair 221.7 Jul 12, 2020 12:56 pm N/A   None None 9 mph 21 mph SW 26.6°F 10% 89.6°F > 1/2 mi
I 80 Walcott Junction 234.66 Jul 12, 2020 12:56 pm N/A   None None 16 mph 25 mph SW 26.6°F 11% 86.0°F > 1/2 mi
I 80 Dana Ridge 244.8 Jul 12, 2020 12:56 pm Dry 123.4°F None None 15 mph 21 mph SW 23.0°F 11% 82.4°F > 1/2 mi
I 80 Mile Marker 249.1 249.1 Jul 12, 2020 12:56 pm Dry 120.4°F None None 17 mph 24 mph W 24.8°F 11% 84.2°F > 1/2 mi
I 80 Halleck Ridge 252.16 Jul 12, 2020 12:56 pm N/A   None None 15 mph 26 mph SW 23.0°F 11% 82.4°F > 1/2 mi
I 80 Elk Mountain 256.17 Jul 12, 2020 12:56 pm Wet 123.6°F None None 12 mph 29 mph S 24.8°F 12% 84.2°F > 1/2 mi
I 80 County Road 402 262 Jul 12, 2020 12:56 pm Dry 129.2°F None None 14 mph 23 mph S 28.4°F 14% 82.4°F > 1/2 mi
I 80 Wagonhound 266.58 Jul 12, 2020 12:56 pm Dry 123.3°F None None 11 mph 19 mph SW 26.6°F 13% 82.4°F > 1/2 mi
I 80 Foote Creek 269.5 Jul 12, 2020 12:56 pm Dry 124.9°F None None 9 mph 13 mph W 24.8°F 12% 80.6°F > 1/2 mi
I 80 Arlington 271.8 Jul 12, 2020 12:56 pm Dry 118.0°F None None 9 mph 20 mph W 23.0°F 11% 80.6°F > 1/2 mi
I 80 Arlington East 273.85 Jul 12, 2020 12:56 pm Dry 123.4°F None None 12 mph 21 mph W 23.0°F 12% 80.6°F > 1/2 mi
I 80 Cooper Cove 279.36 Jul 12, 2020 12:56 pm Dry 105.6°F None None 7 mph 19 mph SW 26.6°F 13% 80.6°F > 1/2 mi
I 80 Strouss Hill 283.75 Jul 12, 2020 12:56 pm Dry 116.8°F None None 4 mph 14 mph SW 23.0°F 12% 82.4°F > 1/2 mi
I 80 Quealy Dome 289.5 Jul 12, 2020 12:56 pm Dry 113.2°F None None 6 mph 11 mph S 24.8°F 12% 82.4°F > 1/2 mi
I 80 Herrick Lane 297.66 Jul 12, 2020 12:56 pm N/A   None None 3 mph 7 mph W 32.0°F 15% 82.4°F > 1/2 mi
I 80 Summit East 325.8 Jul 12, 2020 12:56 pm Dry 121.6°F None None 11 mph 21 mph W 23.0°F 13% 77.0°F > 1/2 mi
I 80 Vedauwoo 329.4 Jul 12, 2020 12:56 pm Dry 109.0°F None None 24 mph 31 mph SW 28.4°F 15% 78.8°F > 1/2 mi
I 80 Lone Tree 333.32 Jul 12, 2020 12:56 pm N/A   None None 24 mph 37 mph SW 32.0°F 18% 78.8°F > 1/2 mi
I 80 Buford East 336.1 Jul 12, 2020 12:56 pm Dry 118.2°F None None 28 mph 39 mph SW 32.0°F 17% 78.8°F > 1/2 mi
I 80 Remount Road 340.5 Jul 12, 2020 12:56 pm N/A   None None 17 mph 22 mph SW 24.8°F 12% 82.4°F > 1/2 mi
I 80 Otto 347.69 Jul 12, 2020 12:56 pm Dry 111.9°F None   12 mph 21 mph NW 23.0°F 9% 86.0°F > 1/2 mi
I 80 MP 353 353 Jul 12, 2020 12:56 pm Dry 117.0°F None None 6 mph 20 mph N 17.6°F 7% 86.0°F > 1/2 mi
I 80 Cheyenne East 373 Jul 12, 2020 12:56 pm Dry 124.0°F None None 6 mph 14 mph N 19.4°F 7% 91.4°F > 1/2 mi
I 90 Montana State Line .1 Jul 12, 2020 12:56 pm N/A   None None 14 mph 22 mph N   24%   > 1/2 mi
I 90 Pompey Creek 35.3 Jul 12, 2020 12:56 pm N/A   None None 12 mph 19 mph W 51.8°F 10% 82.4°F > 1/2 mi
I 90 Sheridan/Johnson County Line 41.33 Jul 12, 2020 12:56 pm Dry 115.7°F None None 13 mph 16 mph E 50.0°F 15% 80.6°F > 1/2 mi
I 90 Piney Creek Interchange 44.7 Jul 12, 2020 12:56 pm Dry 103.1°F None None 10 mph 17 mph NW 32.0°F 12% 91.4°F > 1/2 mi
I 90 Kearny Divide 45.33 Jul 12, 2020 12:56 pm Dry   None None 14 mph 22 mph W 46.4°F 12% 78.8°F > 1/2 mi
I 90 Indian Creek Road 83.3 Jul 12, 2020 12:56 pm Dry 123.3°F None None 16 mph 26 mph E 26.6°F 9% 93.2°F > 1/2 mi
I 90 Dead Horse 91.5 Jul 12, 2020 12:56 pm Dry 126.7°F None None 9 mph 14 mph SE 33.8°F 10% 98.6°F > 1/2 mi
I 90 Mile Marker 108 108 Jul 12, 2020 12:56 pm N/A   None   6 mph 13 mph SW 30.2°F 11% 91.4°F  
I 90 Inyan Kara 170.5 Jul 12, 2020 12:56 pm Dry 122.9°F None   15 mph 21 mph S 48.2°F 24% 87.8°F  
I 90 Beulah 205.9 Jul 12, 2020 12:56 pm Dry 101.7°F None None 6 mph 12 mph E 62.6°F 45% 86.0°F > 1/2 mi
US 14 Ucross 27.83 Jul 12, 2020 12:56 pm Dry 127.4°F None None 2 mph 6 mph W 42.8°F 17% 95.0°F N/A
US 14 Granite Pass 38.95 Jul 12, 2020 12:56 pm N/A   Light Slight 9 mph 9 mph NE 30.2°F 21% 69.8°F > 1/2 mi
US 16 Big Horn County Line 44.01 Jul 12, 2020 12:56 pm Dry 105.3°F None None 6 mph 16 mph W 32.0°F 20% 75.2°F > 1/2 mi
US 191 Farson 40.45 Jul 12, 2020 12:56 pm N/A   None None 15 mph 27 mph SE 28.4°F 12% 86.0°F > 1/2 mi
US 20 Natrona 30 Jul 12, 2020 12:56 pm Dry 128.7°F None   9 mph 27 mph W 26.6°F 9% 91.4°F > 1/2 mi
US 20 Hiland 57.4 Jul 12, 2020 12:56 pm Dry 122.4°F None None 24 mph 36 mph SW 21.2°F 7% 91.4°F > 1/2 mi
US 20 Van Tassell 57.85 Jul 12, 2020 12:56 pm Dry 125.4°F None None 4 mph 12 mph NW 44.6°F 23% 87.8°F > 1/2 mi
US 26 Wind River Lake 26.05 Jul 12, 2020 12:56 pm Dry 115.7°F None None 9 mph 19 mph NW 19.4°F 17% 66.2°F > 1/2 mi
US 287 Pumpkin Vine 420.4 Jul 12, 2020 12:56 pm N/A   None None 25 mph 37 mph SW 30.2°F 18% 77.0°F > 1/2 mi
US 30 Sage Junction 34 Jul 12, 2020 12:56 pm N/A   None None 14 mph 20 mph W 26.6°F 12% 84.2°F > 1/2 mi
US 30 Nugget Canyon 39.7 Jul 12, 2020 12:56 pm N/A   None None 15 mph 25 mph N 28.4°F 13% 84.2°F > 1/2 mi
US 85 Gun Barrel 46.8 Jul 12, 2020 12:56 pm N/A   None None 12 mph 18 mph NW 26.6°F 10% 89.6°F  
US 85 Four Corners 247.2 Jul 12, 2020 12:56 pm Dry 121.1°F None None 9 mph 16 mph SW 48.2°F 31% 80.6°F > 1/2 mi
WY 120 Meeteetse 61.5 Jul 12, 2020 12:56 pm Wet 96.3°F None   19 mph 32 mph W 33.8°F 13% 89.6°F  
WY 210 Wildcat Trail 21.52 Jul 12, 2020 12:56 pm Dry 123.3°F None None 13 mph 24 mph NW 21.2°F 10% 84.2°F > 1/2 mi
WY 210 Hynds Lodge Road 24.55 Jul 12, 2020 12:56 pm Dry 135.9°F None None 9 mph 18 mph NW 24.8°F 11% 84.2°F > 1/2 mi
WY 22 Teton Pass 11.2 Jul 12, 2020 12:56 pm Dry 112.6°F None None 3 mph 7 mph SW 44.6°F 33% 75.2°F > 1/2 mi
WY 220 Pathfinder Hill 80.1 Jul 12, 2020 12:56 pm Dry 126.1°F None None 17 mph 28 mph SW 26.6°F 10% 89.6°F > 1/2 mi
WY 230 Skyline 230 113.2 Jul 12, 2020 12:56 pm Dry 127.9°F None None 7 mph 20 mph W 24.8°F 14% 78.8°F > 1/2 mi
WY 258 Outer Drive 13.77 Jul 12, 2020 12:56 pm Dry 127.2°F None None 13 mph 23 mph W 23.0°F 8% 91.4°F > 1/2 mi
WY 28 New South Pass 41.4 Jul 12, 2020 12:56 pm Dry 125.1°F None None 21 mph 25 mph SW 23.0°F 13% 78.8°F > 1/2 mi
WY 28 Lower Red Canyon 59.71 Jul 12, 2020 12:56 pm Dry 117.5°F None None 19 mph 35 mph SW 24.8°F 11% 84.2°F > 1/2 mi
WY 296 Chief Joseph 32.96 Jul 12, 2020 12:56 pm Wet 120.9°F None None 32 mph 39 mph NW 12.2°F 10% 71.6°F  
WY 372 Shute Creek 34 Jul 12, 2020 12:56 pm Dry 119.7°F None   12 mph 26 mph W 28.4°F 12% 86.0°F  
WY 387 Pine Tree Junction 131.79 Jun 25, 2020 04:00 pm                      
WY 487 Shirley Rim 37 Jul 12, 2020 12:56 pm Dry 125.6°F None None 17 mph 24 mph W 23.0°F 10% 86.0°F > 1/2 mi
WY 59 Belle Fourche 87 Jul 12, 2020 12:56 pm Dry 125.6°F None   14 mph 19 mph S 32.0°F 11% 93.2°F  
WY 789 Beaver Rim 48.1 Jul 12, 2020 12:56 pm     None None 21 mph 30 mph W 51.8°F 29% 87.8°F > 1/2 mi

Contact Us
Copyright 2020 Disclaimer Privacy Policy Media